Latest Coastal Weather Observations for Truscott

IDD60701

Issued at 7:35 am CST Saturday 30 August 2014 (issued every 10 minutes, with the page automatically refreshed every 10 minutes)

About coastal observations | Map of coastal stations | Coastal observations for NT | Marine services | Other Formats
Station Details ID: 001020 Name: TRUSCOTT Lat: -14.09 Lon: 126.39 Height: 51.0 m
Data from the previous 72 hours. | See also: Recent months at Truscott
Date/Time
CST
Temp

°C
Wind Pressure Rain
since 9am
mm
Weather Cloud Vis
km
Sea
Height
m
Swell
Dir
 
Speed
knots
Gust
knots
hPa Trend Height
m
Period
s
Dir
30/07:30am 17.9 SSW 6 7 1014.4 - 0.0 - - 10 - - - -
30/07:00am 18.9 SSW 6 7 1014.6 - 0.0 - - 10 - - - -
30/06:30am 19.8 SSW 7 9 1014.5 - 0.0 - - 10 - - - -
30/06:00am 19.3 SSW 7 8 1014.3 - 0.0 - - 10 - - - -
30/05:30am 18.3 SSW 6 7 1014.1 - 0.0 - - 10 - - - -
30/05:00am 17.4 SSW 5 6 1014.2 - 0.0 - - 10 - - - -
30/04:30am 17.0 SSW 5 6 1013.8 - 0.0 - - 10 - - - -
30/04:00am 17.5 S 4 5 1014.4 - 0.0 - - 10 - - - -
30/03:30am 19.8 SSW 7 8 1014.7 - 0.0 - - 10 - - - -
30/03:00am 17.0 S 3 4 1014.7 - 0.0 - - 10 - - - -
30/02:30am 17.1 SSW 3 4 1014.8 - 0.0 - - 10 - - - -
30/02:00am 17.4 SSW 4 4 1015.0 - 0.0 - - 10 - - - -
30/01:30am 17.5 WSW 0 0 1014.7 - 0.0 - - 10 - - - -
30/01:00am 16.9 CALM 0 0 1015.3 - 0.0 - - 10 - - - -
30/12:30am 18.6 SSW 3 5 1015.5 - 0.0 - - 10 - - - -
30/12:00am 19.3 SSW 2 4 1015.3 - 0.0 - - 10 - - - -
 
Date/Time
CST
Temp

°C
Wind Pressure Rain
since 9am
mm
Weather Cloud Vis
km
Sea
Height
m
Swell
Dir
 
Speed
knots
Gust
knots
hPa Trend Height
m
Period
s
Dir
29/11:30pm 20.2 ESE 4 6 1015.1 - 0.0 - - 10 - - - -
29/11:00pm 21.4 E 4 5 1014.9 - 0.0 - - 10 - - - -
29/10:30pm 22.3 E 5 7 1014.4 - 0.0 - - 10 - - - -
29/10:00pm 22.9 ENE 6 9 1014.8 - 0.0 - - 10 - - - -
29/09:30pm 23.1 ENE 5 7 1014.6 - 0.0 - - 10 - - - -
29/09:00pm 24.1 ENE 6 8 1014.4 - 0.0 - - 10 - - - -
29/08:30pm 25.1 ENE 7 10 1013.9 - 0.0 - - 10 - - - -
29/08:00pm 25.9 ENE 9 13 1013.4 - 0.0 - - 10 - - - -
29/07:30pm 26.4 ENE 9 13 1012.6 - 0.0 - - 10 - - - -
29/07:00pm 27.0 NE 8 12 1012.7 - 0.0 - - 10 - - - -
29/06:30pm 28.1 NE 10 16 1012.5 - 0.0 - - 10 - - - -
29/06:00pm 29.2 NE 9 16 1012.3 - 0.0 - - 10 - - - -
29/05:30pm 30.1 NE 9 14 1012.2 - 0.0 - - 10 - - - -
29/05:00pm 29.6 N 8 11 1012.1 - 0.0 - - 10 - - - -
29/04:30pm 30.2 N 10 14 1011.7 - 0.0 - - 10 - - - -
29/04:00pm 31.7 NE 7 10 1012.3 - 0.0 - - 10 - - - -
29/03:30pm 32.0 NNE 9 13 1012.6 - 0.0 - - 10 - - - -
29/03:00pm 31.8 E 7 13 1012.9 - 0.0 - - 10 - - - -
29/02:30pm 32.1 ESE 7 12 1013.1 - 0.0 - - 10 - - - -
29/02:00pm 31.2 E 8 14 1013.6 - 0.0 - - 10 - - - -
29/01:30pm 31.0 E 10 15 1013.6 - 0.0 - - 10 - - - -
29/01:00pm 30.8 E 9 16 1014.9 - 0.0 - - 10 - - - -
29/12:30pm 30.4 ESE 10 16 1015.2 - 0.0 - - 10 - - - -
29/12:00pm 30.6 E 9 16 1015.6 - 0.0 - - 10 - - - -
29/11:30am 29.8 ESE 8 15 1015.9 - 0.0 - - 10 - - - -
29/11:00am 28.6 ESE 10 15 1016.4 - 0.0 - - 10 - - - -
29/10:30am 27.9 ESE 8 15 1016.0 - 0.0 - - 10 - - - -
29/10:00am 26.8 SE 10 18 1016.8 - 0.0 - - 10 - - - -
29/09:30am 26.2 ESE 10 15 1016.5 - 0.0 - - 10 - - - -
29/09:00am 24.8 SE 7 14 1016.2 - 0.0 - - 10 - - - -
29/08:30am 21.7 SE 4 5 1015.8 - 0.0 - - 10 - - - -
29/08:27am 21.4 SE 4 5 1015.8 - 0.0 - - 10 - - - -
29/08:00am 16.4 SE 4 6 1015.5 - 0.0 - - 10 - - - -
29/07:30am 13.2 CALM 0 0 1014.9 - 0.0 - - 10 - - - -
29/07:00am 12.4 W 1 4 1014.9 - 0.0 - - 10 - - - -
29/06:30am 14.3 CALM 0 3 1014.7 - 0.0 - - 10 - - - -
29/06:00am 15.8 SSW 3 5 1014.3 - 0.0 - - 10 - - - -
29/05:30am 17.0 SW 4 5 1014.0 - 0.0 - - 10 - - - -
29/05:00am 17.5 SSW 4 5 1014.1 - 0.0 - - 10 - - - -
29/04:30am 18.2 SSW 5 6 1013.7 - 0.0 - - 10 - - - -
29/04:00am 17.4 SW 3 5 1014.4 - 0.0 - - 10 - - - -
29/03:30am 18.7 S 4 5 1014.5 - 0.0 - - 10 - - - -
29/03:00am 18.9 S 5 6 1014.8 - 0.0 - - 10 - - - -
29/02:30am 19.1 SSW 5 8 1015.0 - 0.0 - - 10 - - - -
29/02:00am 18.6 S 5 6 1015.2 - 0.0 - - 10 - - - -
29/01:30am 17.5 E 4 6 1014.8 - 0.0 - - 10 - - - -
29/01:00am 17.5 SSE 3 4 1015.4 - 0.0 - - 10 - - - -
29/12:30am 18.8 SW 3 4 1015.5 - 0.0 - - 10 - - - -
29/12:00am 19.4 S 4 5 1015.4 - 0.0 - - 10 - - - -
 
Date/Time
CST
Temp

°C
Wind Pressure Rain
since 9am
mm
Weather Cloud Vis
km
Sea
Height
m
Swell
Dir
 
Speed
knots
Gust
knots
hPa Trend Height
m
Period
s
Dir
28/11:30pm 20.7 E 4 6 1015.1 - 0.0 - - 10 - - - -
28/11:00pm 20.8 ENE 5 7 1015.0 - 0.0 - - 10 - - - -
28/10:30pm 21.3 E 5 6 1014.6 - 0.0 - - 10 - - - -
28/10:00pm 22.5 ENE 6 9 1014.9 - 0.0 - - 10 - - - -
28/09:30pm 23.2 ENE 7 9 1014.8 - 0.0 - - 10 - - - -
28/09:00pm 23.5 ENE 7 10 1014.6 - 0.0 - - 10 - - - -
28/08:30pm 24.1 ENE 7 13 1014.2 - 0.0 - - 10 - - - -
28/08:00pm 24.7 ENE 8 14 1013.8 - 0.0 - - 10 - - - -
28/07:30pm 25.4 ENE 10 15 1012.9 - 0.0 - - 10 - - - -
28/07:00pm 25.9 NE 10 17 1013.0 - 0.0 - - 10 - - - -
28/06:30pm 27.2 NE 11 18 1012.6 - 0.0 - - 10 - - - -
28/06:00pm 28.2 NE 12 18 1012.3 - 0.0 - - 10 - - - -
28/05:30pm 29.3 NE 10 17 1012.0 - 0.0 - - 10 - - - -
28/05:00pm 29.4 NE 10 16 1011.7 - 0.0 - - 10 - - - -
28/04:30pm 30.6 NE 10 16 1011.3 - 0.0 - - 10 - - - -
28/04:00pm 31.1 NE 10 16 1011.9 - 0.0 - - 10 - - - -
28/03:30pm 31.2 ENE 10 15 1012.2 - 0.0 - - 10 - - - -
28/03:00pm 31.4 E 10 14 1012.5 - 0.0 - - 10 - - - -
28/02:30pm 31.3 E 9 14 1012.7 - 0.0 - - 10 - - - -
28/02:00pm 31.3 E 9 15 1013.0 - 0.0 - - 10 - - - -
28/01:30pm 31.3 E 9 14 1013.1 - 0.0 - - 10 - - - -
28/01:00pm 30.4 E 8 14 1014.0 - 0.0 - - 10 - - - -
28/12:30pm 30.2 E 10 17 1014.6 - 0.0 - - 10 - - - -
28/12:00pm 29.6 E 10 17 1015.0 - 0.0 - - 10 - - - -
28/11:30am 29.0 E 10 16 1015.3 - 0.0 - - 10 - - - -
28/11:00am 28.0 E 11 17 1015.7 - 0.0 - - 10 - - - -
28/10:30am 27.3 ESE 10 15 1015.2 - 0.0 - - 10 - - - -
28/10:00am 26.4 E 10 15 1015.6 - 0.0 - - 10 - - - -
28/09:30am 25.1 ESE 7 11 1015.5 - 0.0 - - 10 - - - -
28/09:00am 23.9 ESE 7 13 1015.3 - 0.0 - - 10 - - - -
28/08:30am 22.4 ESE 6 11 1015.2 - 0.0 - - 10 - - - -
28/08:00am 21.0 ESE 5 7 1014.7 - 0.0 - - 10 - - - -
28/07:30am 18.7 E 5 7 1014.1 - 0.0 - - 10 - - - -
28/07:00am 16.8 ESE 5 6 1014.4 - 0.0 - - 10 - - - -
28/06:30am 14.9 SE 4 7 1014.3 - 0.0 - - 10 - - - -
28/06:00am 15.5 S 1 3 1014.2 - 0.0 - - 10 - - - -
28/05:30am 15.8 S 3 4 1014.2 - 0.0 - - 10 - - - -
28/05:00am 17.5 CALM 0 3 1013.8 - 0.0 - - 10 - - - -
28/04:30am 18.3 SW 4 5 1013.2 - 0.0 - - 10 - - - -
28/04:00am 18.4 SSW 4 6 1013.7 - 0.0 - - 10 - - - -
28/03:30am 17.9 SW 2 4 1013.9 - 0.0 - - 10 - - - -
28/03:00am 18.7 SW 4 5 1014.1 - 0.0 - - 10 - - - -
28/02:30am 18.1 SSE 3 6 1014.1 - 0.0 - - 10 - - - -
28/02:00am 17.9 ESE 4 5 1014.1 - 0.0 - - 10 - - - -
28/01:30am 18.5 ESE 4 5 1013.7 - 0.0 - - 10 - - - -
28/01:00am 18.8 ESE 4 5 1014.6 - 0.0 - - 10 - - - -
28/12:30am 19.6 ESE 5 6 1014.8 - 0.0 - - 10 - - - -
28/12:00am 20.6 ESE 4 6 1014.8 - 0.0 - - 10 - - - -
 
Date/Time
CST
Temp

°C
Wind Pressure Rain
since 9am
mm
Weather Cloud Vis
km
Sea
Height
m
Swell
Dir
 
Speed
knots
Gust
knots
hPa Trend Height
m
Period
s
Dir
27/11:30pm 21.1 E 5 6 1014.7 - 0.0 - - 10 - - - -
27/11:00pm 21.1 E 5 6 1014.8 - 0.0 - - 10 - - - -
27/10:30pm 21.7 E 5 7 1014.2 - 0.0 - - 10 - - - -
27/10:00pm 22.5 ENE 5 7 1014.5 - 0.0 - - 10 - - - -
27/09:30pm 23.3 ENE 6 7 1014.5 - 0.0 - - 10 - - - -
27/09:00pm 24.2 ENE 6 10 1014.2 - 0.0 - - 10 - - - -
27/08:30pm 24.9 ENE 7 13 1013.8 - 0.0 - - 10 - - - -
27/08:00pm 25.3 NE 8 13 1013.4 - 0.0 - - 10 - - - -
27/07:30pm 25.9 NE 9 14 1012.4 - 0.0 - - 10 - - - -
27/07:00pm 26.4 NE 9 15 1012.4 - 0.0 - - 10 - - - -
27/06:30pm 27.4 NE 11 17 1012.2 - 0.0 - - 10 - - - -
27/06:00pm 28.6 ENE 10 16 1012.1 - 0.0 - - 10 - - - -
27/05:30pm 29.4 NE 11 18 1011.9 - 0.0 - - 10 - - - -
27/05:00pm 30.0 NE 12 19 1011.6 - 0.0 - - 10 - - - -
27/04:30pm 30.2 ENE 13 20 1011.0 - 0.0 - - 10 - - - -
27/04:00pm 30.2 ENE 12 19 1011.6 - 0.0 - - 10 - - - -
27/03:30pm 31.2 ENE 11 17 1011.8 - 0.0 - - 10 - - - -
27/03:00pm 31.5 E 10 19 1012.0 - 0.0 - - 10 - - - -
27/02:30pm 30.9 E 13 19 1012.3 - 0.0 - - 10 - - - -
27/02:00pm 31.4 ENE 12 19 1012.5 - 0.0 - - 10 - - - -
27/01:30pm 31.7 E 10 15 1012.4 - 0.0 - - 10 - - - -
27/01:00pm 30.8 ENE 9 14 1013.4 - 0.0 - - 10 - - - -
27/12:30pm 30.2 ENE 10 16 1014.0 - 0.0 - - 10 - - - -
27/12:00pm 30.3 E 11 18 1014.3 - 0.0 - - 10 - - - -
27/11:30am 29.4 E 11 18 1014.7 - 0.0 - - 10 - - - -
27/11:00am 29.0 ESE 11 21 1015.0 - 0.0 - - 10 - - - -
27/10:30am 28.5 ESE 8 16 1014.7 - 0.0 - - 10 - - - -
27/10:00am 27.2 ESE 10 17 1015.1 - 0.0 - - 10 - - - -
27/09:30am 25.9 ESE 9 17 1015.0 - 0.0 - - 10 - - - -

Other Formats:

Comma delimited format used in spreadsheet applications
http://www.bom.gov.au/fwo/IDD60701/IDD60701.95101.axf

JavaScript Object Notation format (JSON) in row-major order
http://www.bom.gov.au/fwo/IDD60701/IDD60701.95101.json